sensor_id;sensor_type;location;lat;lon;timestamp;pressure;altitude;pressure_sealevel;temperature;humidity
50444;BME280;36370;52.216;21.142;2022-08-25T00:01:56;100849.25;;;21.69;100.00
50444;BME280;36370;52.216;21.142;2022-08-25T00:05:59;100848.63;;;21.75;100.00
50444;BME280;36370;52.216;21.142;2022-08-25T00:10:01;100845.16;;;21.83;100.00
50444;BME280;36370;52.216;21.142;2022-08-25T00:14:07;100847.94;;;21.73;100.00
50444;BME280;36370;52.216;21.142;2022-08-25T00:18:10;100848.63;;;21.75;100.00
50444;BME280;36370;52.216;21.142;2022-08-25T00:22:21;100840.97;;;21.80;100.00
50444;BME280;36370;52.216;21.142;2022-08-25T00:26:23;100837.63;;;21.78;100.00
50444;BME280;36370;52.216;21.142;2022-08-25T00:30:27;100826.84;;;21.70;100.00
50444;BME280;36370;52.216;21.142;2022-08-25T00:34:35;100822.44;;;21.61;100.00
50444;BME280;36370;52.216;21.142;2022-08-25T00:38:40;100819.47;;;21.46;100.00
50444;BME280;36370;52.216;21.142;2022-08-25T00:42:43;100819.25;;;21.57;100.00
50444;BME280;36370;52.216;21.142;2022-08-25T00:46:48;100814.38;;;21.52;100.00
50444;BME280;36370;52.216;21.142;2022-08-25T00:50:51;100814.41;;;21.61;100.00
50444;BME280;36370;52.216;21.142;2022-08-25T00:55:06;100814.56;;;21.59;100.00
50444;BME280;36370;52.216;21.142;2022-08-25T00:59:11;100815.34;;;21.51;100.00
50444;BME280;36370;52.216;21.142;2022-08-25T01:03:18;100805.69;;;21.50;100.00
50444;BME280;36370;52.216;21.142;2022-08-25T01:07:21;100803.88;;;21.59;100.00
50444;BME280;36370;52.216;21.142;2022-08-25T01:11:25;100810.09;;;21.60;100.00
50444;BME280;36370;52.216;21.142;2022-08-25T01:15:29;100796.03;;;21.58;100.00
50444;BME280;36370;52.216;21.142;2022-08-25T01:19:31;100801.53;;;21.56;100.00
50444;BME280;36370;52.216;21.142;2022-08-25T01:23:34;100799.59;;;21.66;100.00
50444;BME280;36370;52.216;21.142;2022-08-25T01:27:36;100796.25;;;21.64;100.00
50444;BME280;36370;52.216;21.142;2022-08-25T01:31:40;100805.94;;;21.65;100.00
50444;BME280;36370;52.216;21.142;2022-08-25T01:35:43;100813.78;;;21.67;100.00
50444;BME280;36370;52.216;21.142;2022-08-25T01:39:46;100811.50;;;21.72;100.00
50444;BME280;36370;52.216;21.142;2022-08-25T01:43:48;100814.22;;;21.80;100.00
50444;BME280;36370;52.216;21.142;2022-08-25T01:47:51;100819.75;;;21.79;100.00
50444;BME280;36370;52.216;21.142;2022-08-25T01:52:51;100818.41;;;21.83;100.00
50444;BME280;36370;52.216;21.142;2022-08-25T01:56:23;100818.06;;;21.78;100.00
50444;BME280;36370;52.216;21.142;2022-08-25T02:00:25;100813.75;;;21.85;100.00
50444;BME280;36370;52.216;21.142;2022-08-25T02:04:28;100814.28;;;21.88;100.00
50444;BME280;36370;52.216;21.142;2022-08-25T02:08:35;100808.94;;;21.88;100.00
50444;BME280;36370;52.216;21.142;2022-08-25T02:12:37;100817.91;;;21.79;100.00
50444;BME280;36370;52.216;21.142;2022-08-25T02:16:43;100807.03;;;21.81;100.00
50444;BME280;36370;52.216;21.142;2022-08-25T02:20:47;100808.84;;;21.72;100.00
50444;BME280;36370;52.216;21.142;2022-08-25T02:24:49;100808.84;;;21.72;100.00
50444;BME280;36370;52.216;21.142;2022-08-25T02:28:52;100819.00;;;21.68;100.00
50444;BME280;36370;52.216;21.142;2022-08-25T02:32:55;100820.47;;;21.63;100.00
50444;BME280;36370;52.216;21.142;2022-08-25T02:36:57;100827.44;;;21.56;100.00
50444;BME280;36370;52.216;21.142;2022-08-25T02:41:00;100814.88;;;21.56;100.00
50444;BME280;36370;52.216;21.142;2022-08-25T02:45:10;100817.88;;;21.53;100.00
50444;BME280;36370;52.216;21.142;2022-08-25T02:49:12;100822.44;;;21.61;100.00
50444;BME280;36370;52.216;21.142;2022-08-25T02:53:14;100831.88;;;21.73;100.00
50444;BME280;36370;52.216;21.142;2022-08-25T02:57:16;100840.78;;;21.56;100.00
50444;BME280;36370;52.216;21.142;2022-08-25T03:01:20;100850.69;;;21.45;100.00
50444;BME280;36370;52.216;21.142;2022-08-25T03:05:30;100851.59;;;21.36;100.00
50444;BME280;36370;52.216;21.142;2022-08-25T03:09:32;100845.59;;;21.34;100.00
50444;BME280;36370;52.216;21.142;2022-08-25T03:13:39;100845.75;;;21.32;100.00
50444;BME280;36370;52.216;21.142;2022-08-25T03:17:45;100836.91;;;21.32;100.00
50444;BME280;36370;52.216;21.142;2022-08-25T03:21:51;100834.22;;;21.32;100.00
50444;BME280;36370;52.216;21.142;2022-08-25T03:25:57;100832.38;;;21.32;100.00
50444;BME280;36370;52.216;21.142;2022-08-25T03:30:37;100831.84;;;21.29;100.00
50444;BME280;36370;52.216;21.142;2022-08-25T03:34:40;100838.50;;;21.25;100.00
50444;BME280;36370;52.216;21.142;2022-08-25T03:38:42;100844.66;;;21.25;100.00
50444;BME280;36370;52.216;21.142;2022-08-25T03:42:45;100831.09;;;21.37;100.00
50444;BME280;36370;52.216;21.142;2022-08-25T03:46:49;100843.28;;;21.39;100.00
50444;BME280;36370;52.216;21.142;2022-08-25T03:50:52;100842.25;;;21.32;100.00
50444;BME280;36370;52.216;21.142;2022-08-25T03:54:55;100840.41;;;21.32;100.00
50444;BME280;36370;52.216;21.142;2022-08-25T03:58:59;100837.63;;;21.42;100.00
50444;BME280;36370;52.216;21.142;2022-08-25T04:03:01;100833.47;;;21.40;100.00
50444;BME280;36370;52.216;21.142;2022-08-25T04:07:04;100833.47;;;21.40;100.00
50444;BME280;36370;52.216;21.142;2022-08-25T04:11:13;100826.31;;;21.48;100.00
50444;BME280;36370;52.216;21.142;2022-08-25T04:15:16;100826.03;;;21.51;100.00
50444;BME280;36370;52.216;21.142;2022-08-25T04:19:20;100818.03;;;21.51;100.00
50444;BME280;36370;52.216;21.142;2022-08-25T04:23:22;100817.88;;;21.53;100.00
50444;BME280;36370;52.216;21.142;2022-08-25T04:27:24;100818.63;;;21.63;100.00
50444;BME280;36370;52.216;21.142;2022-08-25T04:31:28;100804.63;;;21.69;100.00
50444;BME280;36370;52.216;21.142;2022-08-25T04:35:31;100798.97;;;21.73;100.00
50444;BME280;36370;52.216;21.142;2022-08-25T04:39:33;100799.88;;;21.81;100.00
50444;BME280;36370;52.216;21.142;2022-08-25T04:43:36;100795.00;;;21.77;100.00
50444;BME280;36370;52.216;21.142;2022-08-25T04:47:39;100799.22;;;21.87;100.00
50444;BME280;36370;52.216;21.142;2022-08-25T04:51:42;100794.41;;;21.91;100.00
50444;BME280;36370;52.216;21.142;2022-08-25T04:55:46;100799.94;;;21.98;100.00
50444;BME280;36370;52.216;21.142;2022-08-25T04:59:49;100784.09;;;22.04;100.00
50444;BME280;36370;52.216;21.142;2022-08-25T05:03:54;100778.47;;;22.16;100.00
50444;BME280;36370;52.216;21.142;2022-08-25T05:07:57;100771.13;;;22.18;100.00
50444;BME280;36370;52.216;21.142;2022-08-25T05:12:00;100777.38;;;22.27;100.00
50444;BME280;36370;52.216;21.142;2022-08-25T05:16:04;100766.28;;;22.56;100.00
50444;BME280;36370;52.216;21.142;2022-08-25T05:20:10;100769.97;;;22.63;100.00
50444;BME280;36370;52.216;21.142;2022-08-25T05:24:12;100772.31;;;22.74;100.00
50444;BME280;36370;52.216;21.142;2022-08-25T05:28:15;100770.84;;;22.80;100.00
50444;BME280;36370;52.216;21.142;2022-08-25T05:32:17;100768.31;;;22.79;100.00
50444;BME280;36370;52.216;21.142;2022-08-25T05:36:21;100765.00;;;22.93;100.00
50444;BME280;36370;52.216;21.142;2022-08-25T05:40:24;100773.19;;;22.91;100.00
50444;BME280;36370;52.216;21.142;2022-08-25T05:44:26;100776.03;;;22.82;100.00
50444;BME280;36370;52.216;21.142;2022-08-25T05:48:28;100767.66;;;22.93;100.00
50444;BME280;36370;52.216;21.142;2022-08-25T05:52:31;100773.19;;;22.91;100.00
50444;BME280;36370;52.216;21.142;2022-08-25T05:56:33;100789.50;;;23.15;100.00
50444;BME280;36370;52.216;21.142;2022-08-25T06:00:37;100809.59;;;23.19;100.00
50444;BME280;36370;52.216;21.142;2022-08-25T06:04:40;100794.84;;;23.47;100.00
50444;BME280;36370;52.216;21.142;2022-08-25T06:08:43;100804.09;;;23.45;100.00
50444;BME280;36370;52.216;21.142;2022-08-25T06:12:45;100827.69;;;23.74;100.00
50444;BME280;36370;52.216;21.142;2022-08-25T06:16:50;100841.38;;;24.12;100.00
50444;BME280;36370;52.216;21.142;2022-08-25T06:20:52;100862.56;;;24.47;100.00
50444;BME280;36370;52.216;21.142;2022-08-25T06:24:55;100869.78;;;24.63;100.00
50444;BME280;36370;52.216;21.142;2022-08-25T06:28:57;100878.97;;;24.77;100.00
50444;BME280;36370;52.216;21.142;2022-08-25T06:32:59;100889.03;;;25.06;100.00
50444;BME280;36370;52.216;21.142;2022-08-25T06:37:04;100886.09;;;24.93;100.00
50444;BME280;36370;52.216;21.142;2022-08-25T06:41:08;100901.91;;;25.19;100.00
50444;BME280;36370;52.216;21.142;2022-08-25T06:45:11;100900.16;;;25.34;100.00
50444;BME280;36370;52.216;21.142;2022-08-25T06:49:15;100895.59;;;25.58;100.00
50444;BME280;36370;52.216;21.142;2022-08-25T06:53:18;100914.22;;;25.83;100.00
50444;BME280;36370;52.216;21.142;2022-08-25T06:57:20;100912.91;;;25.78;100.00
50444;BME280;36370;52.216;21.142;2022-08-25T07:01:24;100912.44;;;25.98;100.00
50444;BME280;36370;52.216;21.142;2022-08-25T07:05:28;100912.47;;;26.28;100.00
50444;BME280;36370;52.216;21.142;2022-08-25T07:09:46;100914.34;;;26.27;100.00
50444;BME280;36370;52.216;21.142;2022-08-25T07:13:49;100912.00;;;26.24;100.00
50444;BME280;36370;52.216;21.142;2022-08-25T07:17:51;100920.91;;;26.25;100.00
50444;BME280;36370;52.216;21.142;2022-08-25T07:21:53;100918.50;;;26.45;100.00
50444;BME280;36370;52.216;21.142;2022-08-25T07:25:55;100927.50;;;26.52;100.00
50444;BME280;36370;52.216;21.142;2022-08-25T07:29:58;100937.53;;;26.58;100.00
50444;BME280;36370;52.216;21.142;2022-08-25T07:34:01;100933.47;;;26.62;100.00
50444;BME280;36370;52.216;21.142;2022-08-25T07:38:22;100944.47;;;27.12;100.00
50444;BME280;36370;52.216;21.142;2022-08-25T07:42:25;100941.09;;;27.25;100.00
50444;BME280;36370;52.216;21.142;2022-08-25T07:46:28;100939.34;;;27.32;100.00
50444;BME280;36370;52.216;21.142;2022-08-25T07:50:32;100945.19;;;27.36;100.00
50444;BME280;36370;52.216;21.142;2022-08-25T07:54:35;100946.09;;;27.28;100.00
50444;BME280;36370;52.216;21.142;2022-08-25T07:58:40;100949.19;;;27.40;100.00
50444;BME280;36370;52.216;21.142;2022-08-25T08:02:42;100946.03;;;27.36;100.00
50444;BME280;36370;52.216;21.142;2022-08-25T08:06:45;100940.13;;;27.48;100.00
50444;BME280;36370;52.216;21.142;2022-08-25T08:10:48;100944.13;;;27.52;100.00
50444;BME280;36370;52.216;21.142;2022-08-25T08:15:06;100946.03;;;27.36;100.00
50444;BME280;36370;52.216;21.142;2022-08-25T08:19:11;100936.31;;;27.42;100.00
50444;BME280;36370;52.216;21.142;2022-08-25T08:23:15;100956.38;;;27.18;100.00
50444;BME280;36370;52.216;21.142;2022-08-25T08:27:18;100957.09;;;27.27;100.00
50444;BME280;36370;52.216;21.142;2022-08-25T08:31:23;100945.66;;;27.39;100.00
50444;BME280;36370;52.216;21.142;2022-08-25T08:35:28;100950.00;;;27.62;100.00
50444;BME280;36370;52.216;21.142;2022-08-25T08:39:30;100955.91;;;27.94;100.00
50444;BME280;36370;52.216;21.142;2022-08-25T08:43:34;100951.66;;;28.35;100.00
50444;BME280;36370;52.216;21.142;2022-08-25T08:52:08;100951.81;;;27.98;100.00
50444;BME280;36370;52.216;21.142;2022-08-25T08:56:15;100955.00;;;28.37;100.00
50444;BME280;36370;52.216;21.142;2022-08-25T09:00:20;100952.06;;;28.60;100.00
50444;BME280;36370;52.216;21.142;2022-08-25T09:04:31;100948.03;;;28.84;100.00
50444;BME280;36370;52.216;21.142;2022-08-25T09:08:38;100940.22;;;29.09;100.00
50444;BME280;36370;52.216;21.142;2022-08-25T09:21:34;100942.66;;;29.72;100.00
50444;BME280;36370;52.216;21.142;2022-08-25T09:25:53;100940.59;;;29.81;100.00
50444;BME280;36370;52.216;21.142;2022-08-25T09:30:27;100934.72;;;29.51;100.00
50444;BME280;36370;52.216;21.142;2022-08-25T09:34:34;100922.69;;;29.80;100.00
50444;BME280;36370;52.216;21.142;2022-08-25T09:38:37;100924.34;;;29.88;100.00
50444;BME280;36370;52.216;21.142;2022-08-25T09:42:52;100916.41;;;29.66;95.88
50444;BME280;36370;52.216;21.142;2022-08-25T09:51:33;100912.91;;;30.78;73.65
50444;BME280;36370;52.216;21.142;2022-08-25T09:55:46;100916.31;;;31.12;56.94
50444;BME280;36370;52.216;21.142;2022-08-25T10:04:11;100897.41;;;31.30;55.71
50444;BME280;36370;52.216;21.142;2022-08-25T10:08:34;100901.91;;;31.11;53.94
50444;BME280;36370;52.216;21.142;2022-08-25T10:12:39;100888.81;;;31.33;49.30
50444;BME280;36370;52.216;21.142;2022-08-25T10:16:45;100895.28;;;31.64;45.61
50444;BME280;36370;52.216;21.142;2022-08-25T10:25:15;100878.75;;;31.41;48.61
50444;BME280;36370;52.216;21.142;2022-08-25T10:29:37;100881.38;;;31.79;39.50
50444;BME280;36370;52.216;21.142;2022-08-25T10:34:01;100885.03;;;31.66;38.55
50444;BME280;36370;52.216;21.142;2022-08-25T10:38:15;100882.63;;;31.52;45.17
50444;BME280;36370;52.216;21.142;2022-08-25T10:51:42;100861.75;;;31.77;43.69
50444;BME280;36370;52.216;21.142;2022-08-25T10:56:17;100865.25;;;31.84;44.60
50444;BME280;36370;52.216;21.142;2022-08-25T11:00:23;100853.44;;;31.72;47.28
50444;BME280;36370;52.216;21.142;2022-08-25T11:08:59;100860.06;;;32.01;40.19
50444;BME280;36370;52.216;21.142;2022-08-25T11:13:42;100852.34;;;31.98;41.39
50444;BME280;36370;52.216;21.142;2022-08-25T11:17:53;100840.13;;;31.89;40.89
50444;BME280;36370;52.216;21.142;2022-08-25T11:22:31;100842.34;;;32.17;38.12
50444;BME280;36370;52.216;21.142;2022-08-25T11:26:38;100839.63;;;32.17;37.48
50444;BME280;36370;52.216;21.142;2022-08-25T11:31:01;100830.06;;;32.15;38.57
50444;BME280;36370;52.216;21.142;2022-08-25T11:35:12;100826.69;;;32.50;37.76
50444;BME280;36370;52.216;21.142;2022-08-25T11:53:00;100822.81;;;32.57;35.97
50444;BME280;36370;52.216;21.142;2022-08-25T11:57:15;100827.09;;;32.35;36.89
50444;BME280;36370;52.216;21.142;2022-08-25T12:13:51;100821.41;;;31.99;39.43
50444;BME280;36370;52.216;21.142;2022-08-25T12:30:40;100816.94;;;32.05;39.15
50444;BME280;36370;52.216;21.142;2022-08-25T12:39:18;100814.09;;;32.86;32.10
50444;BME280;36370;52.216;21.142;2022-08-25T12:43:32;100803.13;;;32.92;33.01
50444;BME280;36370;52.216;21.142;2022-08-25T12:47:39;100805.44;;;33.19;35.96
50444;BME280;36370;52.216;21.142;2022-08-25T12:51:55;100796.06;;;32.73;36.57
50444;BME280;36370;52.216;21.142;2022-08-25T12:56:46;100805.50;;;32.40;36.03
50444;BME280;36370;52.216;21.142;2022-08-25T13:01:09;100799.72;;;32.18;33.40
50444;BME280;36370;52.216;21.142;2022-08-25T13:14:18;100793.88;;;32.14;37.31
50444;BME280;36370;52.216;21.142;2022-08-25T13:18:30;100791.38;;;32.31;34.80
50444;BME280;36370;52.216;21.142;2022-08-25T13:22:34;100791.38;;;32.13;36.42
50444;BME280;36370;52.216;21.142;2022-08-25T13:26:39;100789.28;;;32.15;36.56
50444;BME280;36370;52.216;21.142;2022-08-25T13:31:19;100777.22;;;32.11;36.99
50444;BME280;36370;52.216;21.142;2022-08-25T13:35:30;100791.69;;;32.23;36.40
50444;BME280;36370;52.216;21.142;2022-08-25T13:39:36;100788.16;;;32.23;35.75
50444;BME280;36370;52.216;21.142;2022-08-25T13:43:57;100783.22;;;32.31;35.58
50444;BME280;36370;52.216;21.142;2022-08-25T13:48:02;100774.56;;;32.53;35.39
50444;BME280;36370;52.216;21.142;2022-08-25T13:52:16;100776.28;;;32.35;37.29
50444;BME280;36370;52.216;21.142;2022-08-25T13:56:33;100779.44;;;32.32;36.80
50444;BME280;36370;52.216;21.142;2022-08-25T14:05:32;100774.91;;;32.45;36.49
50444;BME280;36370;52.216;21.142;2022-08-25T14:09:49;100768.31;;;32.52;36.29
50444;BME280;36370;52.216;21.142;2022-08-25T14:14:11;100764.38;;;32.48;36.18
50444;BME280;36370;52.216;21.142;2022-08-25T14:18:21;100760.25;;;32.76;37.31
50444;BME280;36370;52.216;21.142;2022-08-25T14:22:28;100759.06;;;32.53;39.54
50444;BME280;36370;52.216;21.142;2022-08-25T14:26:30;100756.50;;;32.28;38.76
50444;BME280;36370;52.216;21.142;2022-08-25T14:30:39;100749.56;;;32.44;39.70
50444;BME280;36370;52.216;21.142;2022-08-25T14:34:46;100747.97;;;32.55;39.84
50444;BME280;36370;52.216;21.142;2022-08-25T14:38:49;100752.06;;;32.46;36.84
50444;BME280;36370;52.216;21.142;2022-08-25T14:42:55;100748.28;;;32.47;35.70
50444;BME280;36370;52.216;21.142;2022-08-25T14:46:59;100761.13;;;32.39;37.26
50444;BME280;36370;52.216;21.142;2022-08-25T14:51:05;100752.75;;;32.41;40.20
50444;BME280;36370;52.216;21.142;2022-08-25T14:55:09;100751.22;;;31.96;40.67
50444;BME280;36370;52.216;21.142;2022-08-25T14:59:11;100753.84;;;32.03;37.91
50444;BME280;36370;52.216;21.142;2022-08-25T15:03:16;100755.59;;;31.97;35.86
50444;BME280;36370;52.216;21.142;2022-08-25T15:07:21;100756.50;;;31.91;35.13
50444;BME280;36370;52.216;21.142;2022-08-25T15:11:47;100760.13;;;31.41;36.22
50444;BME280;36370;52.216;21.142;2022-08-25T15:15:52;100755.53;;;31.67;38.76
50444;BME280;36370;52.216;21.142;2022-08-25T15:19:54;100765.94;;;31.70;39.43
50444;BME280;36370;52.216;21.142;2022-08-25T15:23:57;100760.91;;;32.41;40.79
50444;BME280;36370;52.216;21.142;2022-08-25T15:28:05;100754.38;;;33.03;36.89
50444;BME280;36370;52.216;21.142;2022-08-25T15:32:11;100756.16;;;34.61;33.42
50444;BME280;36370;52.216;21.142;2022-08-25T15:36:29;100749.41;;;36.59;32.11
50444;BME280;36370;52.216;21.142;2022-08-25T15:40:31;100750.31;;;37.35;32.27
50444;BME280;36370;52.216;21.142;2022-08-25T15:44:35;100739.56;;;37.23;28.75
50444;BME280;36370;52.216;21.142;2022-08-25T15:48:39;100745.03;;;36.86;29.21
50444;BME280;36370;52.216;21.142;2022-08-25T15:52:42;100742.19;;;37.08;30.65
50444;BME280;36370;52.216;21.142;2022-08-25T15:56:50;100742.50;;;36.52;32.38
50444;BME280;36370;52.216;21.142;2022-08-25T16:00:53;100742.34;;;36.36;29.99
50444;BME280;36370;52.216;21.142;2022-08-25T16:04:57;100745.91;;;36.37;31.21
50444;BME280;36370;52.216;21.142;2022-08-25T16:09:00;100743.50;;;35.35;31.02
50444;BME280;36370;52.216;21.142;2022-08-25T16:13:03;100743.41;;;33.69;31.34
50444;BME280;36370;52.216;21.142;2022-08-25T16:17:06;100752.75;;;32.11;36.91
50444;BME280;36370;52.216;21.142;2022-08-25T16:21:14;100752.78;;;30.91;40.48
50444;BME280;36370;52.216;21.142;2022-08-25T16:25:17;100741.09;;;30.20;42.90
50444;BME280;36370;52.216;21.142;2022-08-25T16:29:20;100752.91;;;29.74;43.67
50444;BME280;36370;52.216;21.142;2022-08-25T16:33:23;100744.44;;;29.30;47.50
50444;BME280;36370;52.216;21.142;2022-08-25T16:37:26;100743.97;;;29.00;44.42
50444;BME280;36370;52.216;21.142;2022-08-25T16:41:30;100741.47;;;28.72;48.23
50444;BME280;36370;52.216;21.142;2022-08-25T16:45:37;100746.38;;;28.48;51.69
50444;BME280;36370;52.216;21.142;2022-08-25T16:49:40;100748.34;;;28.19;58.43
50444;BME280;36370;52.216;21.142;2022-08-25T16:53:44;100751.09;;;27.91;61.30
50444;BME280;36370;52.216;21.142;2022-08-25T16:58:08;100758.19;;;27.64;68.68
50444;BME280;36370;52.216;21.142;2022-08-25T17:02:14;100754.09;;;27.39;71.49
50444;BME280;36370;52.216;21.142;2022-08-25T17:06:19;100750.50;;;27.11;81.97
50444;BME280;36370;52.216;21.142;2022-08-25T17:10:22;100764.13;;;26.81;100.00
50444;BME280;36370;52.216;21.142;2022-08-25T17:14:26;100766.03;;;26.50;100.00
50444;BME280;36370;52.216;21.142;2022-08-25T17:18:29;100751.00;;;26.20;100.00
50444;BME280;36370;52.216;21.142;2022-08-25T17:22:32;100754.78;;;25.95;100.00
50444;BME280;36370;52.216;21.142;2022-08-25T17:26:37;100763.03;;;25.64;100.00
50444;BME280;36370;52.216;21.142;2022-08-25T17:30:41;100756.03;;;25.40;100.00
50444;BME280;36370;52.216;21.142;2022-08-25T17:34:44;100765.13;;;25.16;100.00
50444;BME280;36370;52.216;21.142;2022-08-25T17:38:47;100769.66;;;24.92;100.00
50444;BME280;36370;52.216;21.142;2022-08-25T17:42:49;100767.66;;;24.71;100.00
50444;BME280;36370;52.216;21.142;2022-08-25T17:46:52;100762.38;;;24.46;100.00
50444;BME280;36370;52.216;21.142;2022-08-25T17:50:58;100773.38;;;24.28;100.00
50444;BME280;36370;52.216;21.142;2022-08-25T17:55:01;100780.50;;;24.05;100.00
50444;BME280;36370;52.216;21.142;2022-08-25T17:59:03;100783.25;;;23.88;100.00
50444;BME280;36370;52.216;21.142;2022-08-25T18:03:07;100793.00;;;23.73;100.00
50444;BME280;36370;52.216;21.142;2022-08-25T18:07:11;100795.03;;;23.54;100.00
50444;BME280;36370;52.216;21.142;2022-08-25T18:11:13;100788.16;;;23.35;100.00
50444;BME280;36370;52.216;21.142;2022-08-25T18:15:18;100792.88;;;23.17;100.00
50444;BME280;36370;52.216;21.142;2022-08-25T18:19:21;100795.00;;;23.05;100.00
50444;BME280;36370;52.216;21.142;2022-08-25T18:23:23;100789.25;;;22.91;100.00
50444;BME280;36370;52.216;21.142;2022-08-25T18:27:26;100790.91;;;22.76;100.00
50444;BME280;36370;52.216;21.142;2022-08-25T18:31:30;100784.50;;;22.61;100.00
50444;BME280;36370;52.216;21.142;2022-08-25T18:35:33;100781.78;;;22.36;100.00
50444;BME280;36370;52.216;21.142;2022-08-25T18:39:35;100776.97;;;22.13;100.00
50444;BME280;36370;52.216;21.142;2022-08-25T18:43:56;100790.31;;;22.05;100.00
50444;BME280;36370;52.216;21.142;2022-08-25T18:47:58;100792.28;;;22.03;100.00
50444;BME280;36370;52.216;21.142;2022-08-25T18:52:03;100784.09;;;22.04;100.00
50444;BME280;36370;52.216;21.142;2022-08-25T18:56:05;100791.47;;;22.11;100.00
50444;BME280;36370;52.216;21.142;2022-08-25T19:00:11;100790.66;;;22.10;100.00
50444;BME280;36370;52.216;21.142;2022-08-25T19:04:14;100792.81;;;22.07;100.00
50444;BME280;36370;52.216;21.142;2022-08-25T19:08:18;100791.13;;;22.05;100.00
50444;BME280;36370;52.216;21.142;2022-08-25T19:12:22;100782.75;;;22.00;100.00
50444;BME280;36370;52.216;21.142;2022-08-25T19:16:37;100791.41;;;21.94;100.00
50444;BME280;36370;52.216;21.142;2022-08-25T19:20:40;100789.22;;;21.90;100.00
50444;BME280;36370;52.216;21.142;2022-08-25T19:24:43;100795.88;;;21.85;100.00
50444;BME280;36370;52.216;21.142;2022-08-25T19:28:47;100784.00;;;21.80;100.00
50444;BME280;36370;52.216;21.142;2022-08-25T19:32:51;100784.16;;;21.78;100.00
50444;BME280;36370;52.216;21.142;2022-08-25T19:36:54;100784.94;;;21.71;100.00
50444;BME280;36370;52.216;21.142;2022-08-25T19:40:58;100786.06;;;21.68;100.00
50444;BME280;36370;52.216;21.142;2022-08-25T19:45:00;100783.19;;;21.61;100.00
50444;BME280;36370;52.216;21.142;2022-08-25T19:49:15;100780.59;;;21.51;100.00
50444;BME280;36370;52.216;21.142;2022-08-25T19:53:18;100770.81;;;21.42;100.00
50444;BME280;36370;52.216;21.142;2022-08-25T19:57:21;100772.59;;;21.33;100.00
50444;BME280;36370;52.216;21.142;2022-08-25T20:01:44;100768.81;;;21.18;100.00
50444;BME280;36370;52.216;21.142;2022-08-25T20:05:49;100769.09;;;21.15;100.00
50444;BME280;36370;52.216;21.142;2022-08-25T20:09:53;100764.69;;;21.06;100.00
50444;BME280;36370;52.216;21.142;2022-08-25T20:13:57;100770.94;;;20.96;100.00
50444;BME280;36370;52.216;21.142;2022-08-25T20:18:05;100767.50;;;20.86;100.00
50444;BME280;36370;52.216;21.142;2022-08-25T20:22:07;100759.25;;;20.79;100.00
50444;BME280;36370;52.216;21.142;2022-08-25T20:26:18;100758.44;;;20.79;100.00
50444;BME280;36370;52.216;21.142;2022-08-25T20:30:26;100759.19;;;20.71;100.00
50444;BME280;36370;52.216;21.142;2022-08-25T20:34:29;100759.34;;;20.60;100.00
50444;BME280;36370;52.216;21.142;2022-08-25T20:38:33;100754.47;;;20.55;100.00
50444;BME280;36370;52.216;21.142;2022-08-25T20:42:36;100751.94;;;20.36;100.00
50444;BME280;36370;52.216;21.142;2022-08-25T20:46:41;100748.31;;;20.27;100.00
50444;BME280;36370;52.216;21.142;2022-08-25T20:50:44;100762.41;;;20.19;100.00
50444;BME280;36370;52.216;21.142;2022-08-25T20:54:58;100761.34;;;20.02;100.00
50444;BME280;36370;52.216;21.142;2022-08-25T20:59:01;100745.81;;;19.88;100.00
50444;BME280;36370;52.216;21.142;2022-08-25T21:03:11;100743.75;;;19.82;100.00
50444;BME280;36370;52.216;21.142;2022-08-25T21:07:13;100743.59;;;19.73;100.00
50444;BME280;36370;52.216;21.142;2022-08-25T21:11:16;100731.28;;;19.63;100.00
50444;BME280;36370;52.216;21.142;2022-08-25T21:15:23;100739.91;;;19.47;100.00
50444;BME280;36370;52.216;21.142;2022-08-25T21:19:26;100729.53;;;19.34;100.00
50444;BME280;36370;52.216;21.142;2022-08-25T21:23:31;100718.75;;;19.26;100.00
50444;BME280;36370;52.216;21.142;2022-08-25T21:27:33;100711.31;;;19.29;100.00
50444;BME280;36370;52.216;21.142;2022-08-25T21:31:35;100705.84;;;19.21;100.00
50444;BME280;36370;52.216;21.142;2022-08-25T21:35:40;100706.56;;;19.13;100.00
50444;BME280;36370;52.216;21.142;2022-08-25T21:39:43;100708.25;;;19.05;100.00
50444;BME280;36370;52.216;21.142;2022-08-25T21:43:46;100715.97;;;18.98;100.00
50444;BME280;36370;52.216;21.142;2022-08-25T21:47:48;100702.94;;;18.95;100.00
50444;BME280;36370;52.216;21.142;2022-08-25T21:51:53;100699.66;;;18.81;100.00
50444;BME280;36370;52.216;21.142;2022-08-25T21:56:05;100710.06;;;18.84;100.00
50444;BME280;36370;52.216;21.142;2022-08-25T22:00:08;100709.50;;;18.71;100.00
50444;BME280;36370;52.216;21.142;2022-08-25T22:04:13;100695.19;;;18.62;100.00
50444;BME280;36370;52.216;21.142;2022-08-25T22:08:16;100697.16;;;18.60;100.00
50444;BME280;36370;52.216;21.142;2022-08-25T22:12:20;100692.81;;;18.59;100.00
50444;BME280;36370;52.216;21.142;2022-08-25T22:16:23;100696.47;;;18.58;100.00
50444;BME280;36370;52.216;21.142;2022-08-25T22:20:25;100699.22;;;18.47;100.00
50444;BME280;36370;52.216;21.142;2022-08-25T22:24:29;100678.81;;;18.47;100.00
50444;BME280;36370;52.216;21.142;2022-08-25T22:28:31;100674.59;;;18.45;100.00
50444;BME280;36370;52.216;21.142;2022-08-25T22:32:34;100669.13;;;18.37;100.00
50444;BME280;36370;52.216;21.142;2022-08-25T22:36:37;100651.47;;;18.26;100.00